sensor_id;sensor_type;location;lat;lon;timestamp;P1;durP1;ratioP1;P2;durP2;ratioP2
6823;SDS011;58633;49.470;11.004;2023-03-11T00:00:40;1.50;;;1.40;;
6823;SDS011;58633;49.470;11.004;2023-03-11T00:03:08;1.53;;;1.43;;
6823;SDS011;58633;49.470;11.004;2023-03-11T00:05:37;1.47;;;1.40;;
6823;SDS011;58633;49.470;11.004;2023-03-11T00:08:04;1.53;;;1.43;;
6823;SDS011;58633;49.470;11.004;2023-03-11T00:10:32;1.43;;;1.43;;
6823;SDS011;58633;49.470;11.004;2023-03-11T00:12:59;1.30;;;1.30;;
6823;SDS011;58633;49.470;11.004;2023-03-11T00:15:25;1.80;;;1.70;;
6823;SDS011;58633;49.470;11.004;2023-03-11T00:17:51;1.40;;;1.40;;
6823;SDS011;58633;49.470;11.004;2023-03-11T00:20:19;1.67;;;1.57;;
6823;SDS011;58633;49.470;11.004;2023-03-11T00:22:50;1.40;;;1.40;;
6823;SDS011;58633;49.470;11.004;2023-03-11T00:25:16;1.40;;;1.30;;
6823;SDS011;58633;49.470;11.004;2023-03-11T00:27:43;1.27;;;1.27;;
6823;SDS011;58633;49.470;11.004;2023-03-11T00:30:09;1.40;;;1.30;;
6823;SDS011;58633;49.470;11.004;2023-03-11T00:32:36;1.50;;;1.40;;
6823;SDS011;58633;49.470;11.004;2023-03-11T00:35:02;1.20;;;1.20;;
6823;SDS011;58633;49.470;11.004;2023-03-11T00:37:29;1.60;;;1.30;;
6823;SDS011;58633;49.470;11.004;2023-03-11T00:39:54;1.20;;;1.20;;
6823;SDS011;58633;49.470;11.004;2023-03-11T00:42:20;1.20;;;1.20;;
6823;SDS011;58633;49.470;11.004;2023-03-11T00:44:46;6.53;;;1.40;;
6823;SDS011;58633;49.470;11.004;2023-03-11T00:47:12;1.50;;;1.40;;
6823;SDS011;58633;49.470;11.004;2023-03-11T00:49:38;1.33;;;1.33;;
6823;SDS011;58633;49.470;11.004;2023-03-11T00:52:05;1.30;;;1.30;;
6823;SDS011;58633;49.470;11.004;2023-03-11T00:54:31;1.43;;;1.33;;
6823;SDS011;58633;49.470;11.004;2023-03-11T00:56:57;1.33;;;1.27;;
6823;SDS011;58633;49.470;11.004;2023-03-11T00:59:22;1.00;;;1.00;;
6823;SDS011;58633;49.470;11.004;2023-03-11T01:01:48;1.30;;;1.30;;
6823;SDS011;58633;49.470;11.004;2023-03-11T01:04:14;1.50;;;1.40;;
6823;SDS011;58633;49.470;11.004;2023-03-11T01:06:40;1.53;;;1.43;;
6823;SDS011;58633;49.470;11.004;2023-03-11T01:09:06;1.20;;;1.20;;
6823;SDS011;58633;49.470;11.004;2023-03-11T01:11:32;1.10;;;1.10;;
6823;SDS011;58633;49.470;11.004;2023-03-11T01:13:58;0.90;;;0.90;;
6823;SDS011;58633;49.470;11.004;2023-03-11T01:16:24;1.20;;;1.20;;
6823;SDS011;58633;49.470;11.004;2023-03-11T01:18:50;1.43;;;1.33;;
6823;SDS011;58633;49.470;11.004;2023-03-11T01:21:16;1.27;;;1.27;;
6823;SDS011;58633;49.470;11.004;2023-03-11T01:23:42;1.10;;;1.10;;
6823;SDS011;58633;49.470;11.004;2023-03-11T01:26:08;1.30;;;1.20;;
6823;SDS011;58633;49.470;11.004;2023-03-11T01:28:34;1.30;;;1.20;;
6823;SDS011;58633;49.470;11.004;2023-03-11T01:31:00;1.20;;;1.20;;
6823;SDS011;58633;49.470;11.004;2023-03-11T01:33:26;1.10;;;1.10;;
6823;SDS011;58633;49.470;11.004;2023-03-11T01:35:53;1.10;;;1.10;;
6823;SDS011;58633;49.470;11.004;2023-03-11T01:38:19;1.20;;;1.20;;
6823;SDS011;58633;49.470;11.004;2023-03-11T01:40:46;0.90;;;0.90;;
6823;SDS011;58633;49.470;11.004;2023-03-11T01:46:07;1.23;;;1.23;;
6823;SDS011;58633;49.470;11.004;2023-03-11T01:48:37;1.10;;;1.10;;
6823;SDS011;58633;49.470;11.004;2023-03-11T01:51:04;1.20;;;1.20;;
6823;SDS011;58633;49.470;11.004;2023-03-11T01:53:30;1.20;;;1.20;;
6823;SDS011;58633;49.470;11.004;2023-03-11T01:55:57;1.37;;;1.27;;
6823;SDS011;58633;49.470;11.004;2023-03-11T01:58:24;1.93;;;1.60;;
6823;SDS011;58633;49.470;11.004;2023-03-11T02:00:53;1.40;;;1.30;;
6823;SDS011;58633;49.470;11.004;2023-03-11T02:03:21;1.30;;;1.30;;
6823;SDS011;58633;49.470;11.004;2023-03-11T02:05:58;1.30;;;1.30;;
6823;SDS011;58633;49.470;11.004;2023-03-11T02:08:26;1.40;;;1.40;;
6823;SDS011;58633;49.470;11.004;2023-03-11T02:10:54;1.40;;;1.40;;
6823;SDS011;58633;49.470;11.004;2023-03-11T02:13:20;1.60;;;1.40;;
6823;SDS011;58633;49.470;11.004;2023-03-11T02:15:46;1.10;;;1.10;;
6823;SDS011;58633;49.470;11.004;2023-03-11T02:18:12;1.13;;;1.13;;
6823;SDS011;58633;49.470;11.004;2023-03-11T02:20:42;1.10;;;1.10;;
6823;SDS011;58633;49.470;11.004;2023-03-11T02:23:16;1.53;;;1.43;;
6823;SDS011;58633;49.470;11.004;2023-03-11T02:25:47;1.33;;;1.33;;
6823;SDS011;58633;49.470;11.004;2023-03-11T02:28:16;1.40;;;1.40;;
6823;SDS011;58633;49.470;11.004;2023-03-11T02:30:44;1.70;;;1.60;;
6823;SDS011;58633;49.470;11.004;2023-03-11T02:33:10;1.53;;;1.43;;
6823;SDS011;58633;49.470;11.004;2023-03-11T02:35:38;1.30;;;1.30;;
6823;SDS011;58633;49.470;11.004;2023-03-11T02:38:04;1.93;;;1.70;;
6823;SDS011;58633;49.470;11.004;2023-03-11T02:40:45;1.33;;;1.33;;
6823;SDS011;58633;49.470;11.004;2023-03-11T02:43:15;1.63;;;1.53;;
6823;SDS011;58633;49.470;11.004;2023-03-11T02:45:43;1.67;;;1.60;;
6823;SDS011;58633;49.470;11.004;2023-03-11T02:48:11;1.50;;;1.50;;
6823;SDS011;58633;49.470;11.004;2023-03-11T02:50:37;1.50;;;1.50;;
6823;SDS011;58633;49.470;11.004;2023-03-11T02:53:04;1.43;;;1.43;;
6823;SDS011;58633;49.470;11.004;2023-03-11T02:55:31;1.43;;;1.43;;
6823;SDS011;58633;49.470;11.004;2023-03-11T02:57:57;1.70;;;1.60;;
6823;SDS011;58633;49.470;11.004;2023-03-11T03:00:23;1.60;;;1.50;;
6823;SDS011;58633;49.470;11.004;2023-03-11T03:02:48;1.73;;;1.50;;
6823;SDS011;58633;49.470;11.004;2023-03-11T03:05:18;1.60;;;1.50;;
6823;SDS011;58633;49.470;11.004;2023-03-11T03:07:48;1.37;;;1.30;;
6823;SDS011;58633;49.470;11.004;2023-03-11T03:10:15;1.40;;;1.40;;
6823;SDS011;58633;49.470;11.004;2023-03-11T03:12:42;1.50;;;1.50;;
6823;SDS011;58633;49.470;11.004;2023-03-11T03:15:08;1.80;;;1.70;;
6823;SDS011;58633;49.470;11.004;2023-03-11T03:17:35;1.57;;;1.47;;
6823;SDS011;58633;49.470;11.004;2023-03-11T03:20:01;1.60;;;1.50;;
6823;SDS011;58633;49.470;11.004;2023-03-11T03:22:30;1.60;;;1.50;;
6823;SDS011;58633;49.470;11.004;2023-03-11T03:24:56;1.50;;;1.43;;
6823;SDS011;58633;49.470;11.004;2023-03-11T03:27:22;1.33;;;1.30;;
6823;SDS011;58633;49.470;11.004;2023-03-11T03:29:47;1.40;;;1.30;;
6823;SDS011;58633;49.470;11.004;2023-03-11T03:32:13;1.50;;;1.40;;
6823;SDS011;58633;49.470;11.004;2023-03-11T03:34:39;1.07;;;1.07;;
6823;SDS011;58633;49.470;11.004;2023-03-11T03:37:05;1.67;;;1.57;;
6823;SDS011;58633;49.470;11.004;2023-03-11T03:39:31;2.40;;;1.50;;
6823;SDS011;58633;49.470;11.004;2023-03-11T03:41:57;1.37;;;1.27;;
6823;SDS011;58633;49.470;11.004;2023-03-11T03:44:24;1.27;;;1.23;;
6823;SDS011;58633;49.470;11.004;2023-03-11T03:46:50;1.53;;;1.40;;
6823;SDS011;58633;49.470;11.004;2023-03-11T03:49:16;1.23;;;1.23;;
6823;SDS011;58633;49.470;11.004;2023-03-11T03:51:41;1.47;;;1.40;;
6823;SDS011;58633;49.470;11.004;2023-03-11T03:54:07;1.50;;;1.40;;
6823;SDS011;58633;49.470;11.004;2023-03-11T03:56:33;1.40;;;1.30;;
6823;SDS011;58633;49.470;11.004;2023-03-11T03:58:59;5.10;;;1.33;;
6823;SDS011;58633;49.470;11.004;2023-03-11T04:01:25;1.33;;;1.33;;
6823;SDS011;58633;49.470;11.004;2023-03-11T04:03:51;2.10;;;1.30;;
6823;SDS011;58633;49.470;11.004;2023-03-11T04:06:18;1.37;;;1.37;;
6823;SDS011;58633;49.470;11.004;2023-03-11T04:08:49;1.47;;;1.37;;
6823;SDS011;58633;49.470;11.004;2023-03-11T04:11:16;2.10;;;1.30;;
6823;SDS011;58633;49.470;11.004;2023-03-11T04:13:42;2.10;;;1.47;;
6823;SDS011;58633;49.470;11.004;2023-03-11T04:16:09;1.50;;;1.40;;
6823;SDS011;58633;49.470;11.004;2023-03-11T04:18:38;1.90;;;1.50;;
6823;SDS011;58633;49.470;11.004;2023-03-11T04:21:05;1.20;;;1.10;;
6823;SDS011;58633;49.470;11.004;2023-03-11T04:23:31;1.43;;;1.40;;
6823;SDS011;58633;49.470;11.004;2023-03-11T04:25:57;1.97;;;1.43;;
6823;SDS011;58633;49.470;11.004;2023-03-11T04:28:23;1.20;;;1.10;;
6823;SDS011;58633;49.470;11.004;2023-03-11T04:30:49;1.30;;;1.30;;
6823;SDS011;58633;49.470;11.004;2023-03-11T04:33:17;1.63;;;1.30;;
6823;SDS011;58633;49.470;11.004;2023-03-11T04:35:43;1.63;;;1.47;;
6823;SDS011;58633;49.470;11.004;2023-03-11T04:38:09;1.57;;;1.30;;
6823;SDS011;58633;49.470;11.004;2023-03-11T04:40:38;1.37;;;1.20;;
6823;SDS011;58633;49.470;11.004;2023-03-11T04:43:04;1.17;;;1.13;;
6823;SDS011;58633;49.470;11.004;2023-03-11T04:45:30;1.37;;;1.30;;
6823;SDS011;58633;49.470;11.004;2023-03-11T04:47:56;1.40;;;1.30;;
6823;SDS011;58633;49.470;11.004;2023-03-11T04:50:22;2.63;;;1.40;;
6823;SDS011;58633;49.470;11.004;2023-03-11T04:52:48;1.30;;;1.30;;
6823;SDS011;58633;49.470;11.004;2023-03-11T04:55:14;2.00;;;1.30;;
6823;SDS011;58633;49.470;11.004;2023-03-11T04:57:40;1.93;;;1.40;;
6823;SDS011;58633;49.470;11.004;2023-03-11T05:00:07;3.97;;;1.80;;
6823;SDS011;58633;49.470;11.004;2023-03-11T05:02:35;2.00;;;1.77;;
6823;SDS011;58633;49.470;11.004;2023-03-11T05:05:01;3.10;;;1.60;;
6823;SDS011;58633;49.470;11.004;2023-03-11T05:07:27;1.80;;;1.53;;
6823;SDS011;58633;49.470;11.004;2023-03-11T05:09:53;1.50;;;1.40;;
6823;SDS011;58633;49.470;11.004;2023-03-11T05:12:19;2.53;;;1.73;;
6823;SDS011;58633;49.470;11.004;2023-03-11T05:14:45;1.37;;;1.30;;
6823;SDS011;58633;49.470;11.004;2023-03-11T05:17:11;3.33;;;1.37;;
6823;SDS011;58633;49.470;11.004;2023-03-11T05:19:39;2.10;;;1.50;;
6823;SDS011;58633;49.470;11.004;2023-03-11T05:22:05;4.90;;;1.57;;
6823;SDS011;58633;49.470;11.004;2023-03-11T05:24:31;1.40;;;1.30;;
6823;SDS011;58633;49.470;11.004;2023-03-11T05:26:58;4.10;;;1.40;;
6823;SDS011;58633;49.470;11.004;2023-03-11T05:29:25;1.83;;;1.50;;
6823;SDS011;58633;49.470;11.004;2023-03-11T05:31:51;1.50;;;1.40;;
6823;SDS011;58633;49.470;11.004;2023-03-11T05:34:17;2.47;;;1.80;;
6823;SDS011;58633;49.470;11.004;2023-03-11T05:36:43;1.53;;;1.27;;
6823;SDS011;58633;49.470;11.004;2023-03-11T05:39:09;1.50;;;1.40;;
6823;SDS011;58633;49.470;11.004;2023-03-11T05:41:35;1.67;;;1.53;;
6823;SDS011;58633;49.470;11.004;2023-03-11T05:44:02;1.57;;;1.47;;
6823;SDS011;58633;49.470;11.004;2023-03-11T05:46:28;1.90;;;1.73;;
6823;SDS011;58633;49.470;11.004;2023-03-11T05:48:54;1.93;;;1.63;;
6823;SDS011;58633;49.470;11.004;2023-03-11T05:51:20;2.73;;;1.50;;
6823;SDS011;58633;49.470;11.004;2023-03-11T05:53:46;1.60;;;1.60;;
6823;SDS011;58633;49.470;11.004;2023-03-11T05:56:16;1.60;;;1.50;;
6823;SDS011;58633;49.470;11.004;2023-03-11T05:58:42;2.00;;;1.80;;
6823;SDS011;58633;49.470;11.004;2023-03-11T06:01:09;2.70;;;1.70;;
6823;SDS011;58633;49.470;11.004;2023-03-11T06:03:36;1.83;;;1.73;;
6823;SDS011;58633;49.470;11.004;2023-03-11T06:06:03;2.63;;;1.90;;
6823;SDS011;58633;49.470;11.004;2023-03-11T06:08:31;2.40;;;1.97;;
6823;SDS011;58633;49.470;11.004;2023-03-11T06:11:03;2.30;;;2.10;;
6823;SDS011;58633;49.470;11.004;2023-03-11T06:13:30;2.13;;;1.87;;
6823;SDS011;58633;49.470;11.004;2023-03-11T06:15:56;1.87;;;1.70;;
6823;SDS011;58633;49.470;11.004;2023-03-11T06:18:22;3.17;;;1.70;;
6823;SDS011;58633;49.470;11.004;2023-03-11T06:20:50;1.70;;;1.60;;
6823;SDS011;58633;49.470;11.004;2023-03-11T06:23:16;2.30;;;2.17;;
6823;SDS011;58633;49.470;11.004;2023-03-11T06:25:42;3.63;;;1.90;;
6823;SDS011;58633;49.470;11.004;2023-03-11T06:28:08;1.93;;;1.83;;
6823;SDS011;58633;49.470;11.004;2023-03-11T06:30:34;2.33;;;1.90;;
6823;SDS011;58633;49.470;11.004;2023-03-11T06:33:00;1.80;;;1.70;;
6823;SDS011;58633;49.470;11.004;2023-03-11T06:35:26;2.10;;;1.90;;
6823;SDS011;58633;49.470;11.004;2023-03-11T06:37:52;2.13;;;1.97;;
6823;SDS011;58633;49.470;11.004;2023-03-11T06:40:18;2.73;;;1.90;;
6823;SDS011;58633;49.470;11.004;2023-03-11T06:42:44;4.20;;;2.30;;
6823;SDS011;58633;49.470;11.004;2023-03-11T06:45:11;2.20;;;1.90;;
6823;SDS011;58633;49.470;11.004;2023-03-11T06:47:37;2.00;;;1.90;;
6823;SDS011;58633;49.470;11.004;2023-03-11T06:50:04;2.57;;;2.17;;
6823;SDS011;58633;49.470;11.004;2023-03-11T06:52:33;3.03;;;2.07;;
6823;SDS011;58633;49.470;11.004;2023-03-11T06:54:59;1.80;;;1.67;;
6823;SDS011;58633;49.470;11.004;2023-03-11T06:57:24;3.13;;;1.93;;
6823;SDS011;58633;49.470;11.004;2023-03-11T06:59:51;2.07;;;1.80;;
6823;SDS011;58633;49.470;11.004;2023-03-11T07:02:17;3.80;;;2.07;;
6823;SDS011;58633;49.470;11.004;2023-03-11T07:04:43;2.30;;;2.07;;
6823;SDS011;58633;49.470;11.004;2023-03-11T07:07:09;3.27;;;2.10;;
6823;SDS011;58633;49.470;11.004;2023-03-11T07:09:34;2.40;;;2.20;;
6823;SDS011;58633;49.470;11.004;2023-03-11T07:12:00;3.77;;;1.83;;
6823;SDS011;58633;49.470;11.004;2023-03-11T07:14:26;1.97;;;1.87;;
6823;SDS011;58633;49.470;11.004;2023-03-11T07:16:52;2.30;;;2.10;;
6823;SDS011;58633;49.470;11.004;2023-03-11T07:19:17;3.60;;;2.17;;
6823;SDS011;58633;49.470;11.004;2023-03-11T07:21:43;3.40;;;2.20;;
6823;SDS011;58633;49.470;11.004;2023-03-11T07:24:11;3.00;;;1.70;;
6823;SDS011;58633;49.470;11.004;2023-03-11T07:26:38;2.70;;;2.50;;
6823;SDS011;58633;49.470;11.004;2023-03-11T07:29:04;2.20;;;2.00;;
6823;SDS011;58633;49.470;11.004;2023-03-11T07:31:30;2.40;;;2.20;;
6823;SDS011;58633;49.470;11.004;2023-03-11T07:33:58;2.50;;;2.30;;
6823;SDS011;58633;49.470;11.004;2023-03-11T07:36:25;2.57;;;2.13;;
6823;SDS011;58633;49.470;11.004;2023-03-11T07:38:55;3.10;;;2.37;;
6823;SDS011;58633;49.470;11.004;2023-03-11T07:41:27;3.23;;;2.03;;
6823;SDS011;58633;49.470;11.004;2023-03-11T07:43:54;2.13;;;2.00;;
6823;SDS011;58633;49.470;11.004;2023-03-11T07:46:22;6.67;;;1.97;;
6823;SDS011;58633;49.470;11.004;2023-03-11T07:48:49;2.70;;;2.13;;
6823;SDS011;58633;49.470;11.004;2023-03-11T07:51:20;3.17;;;2.23;;
6823;SDS011;58633;49.470;11.004;2023-03-11T07:53:47;4.10;;;2.10;;
6823;SDS011;58633;49.470;11.004;2023-03-11T07:56:17;2.83;;;2.00;;
6823;SDS011;58633;49.470;11.004;2023-03-11T07:58:43;3.57;;;1.90;;
6823;SDS011;58633;49.470;11.004;2023-03-11T08:01:10;2.07;;;1.80;;
6823;SDS011;58633;49.470;11.004;2023-03-11T08:03:42;3.33;;;2.10;;
6823;SDS011;58633;49.470;11.004;2023-03-11T08:08:44;3.67;;;2.03;;
6823;SDS011;58633;49.470;11.004;2023-03-11T08:11:11;2.30;;;2.10;;
6823;SDS011;58633;49.470;11.004;2023-03-11T08:13:38;5.63;;;2.40;;
6823;SDS011;58633;49.470;11.004;2023-03-11T08:16:04;2.70;;;1.90;;
6823;SDS011;58633;49.470;11.004;2023-03-11T08:18:31;2.67;;;2.10;;
6823;SDS011;58633;49.470;11.004;2023-03-11T08:20:58;2.23;;;2.10;;
6823;SDS011;58633;49.470;11.004;2023-03-11T08:23:24;3.97;;;1.90;;
6823;SDS011;58633;49.470;11.004;2023-03-11T08:25:49;2.07;;;1.87;;
6823;SDS011;58633;49.470;11.004;2023-03-11T08:28:15;3.67;;;1.93;;
6823;SDS011;58633;49.470;11.004;2023-03-11T08:30:41;2.20;;;1.60;;
6823;SDS011;58633;49.470;11.004;2023-03-11T08:33:07;2.47;;;2.20;;
6823;SDS011;58633;49.470;11.004;2023-03-11T08:35:33;2.50;;;2.07;;
6823;SDS011;58633;49.470;11.004;2023-03-11T08:37:59;3.17;;;2.47;;
6823;SDS011;58633;49.470;11.004;2023-03-11T08:40:24;4.73;;;2.10;;
6823;SDS011;58633;49.470;11.004;2023-03-11T08:42:50;2.10;;;1.90;;
6823;SDS011;58633;49.470;11.004;2023-03-11T08:45:16;2.80;;;1.77;;
6823;SDS011;58633;49.470;11.004;2023-03-11T08:47:42;2.00;;;1.90;;
6823;SDS011;58633;49.470;11.004;2023-03-11T08:50:11;1.90;;;1.70;;
6823;SDS011;58633;49.470;11.004;2023-03-11T08:52:38;2.20;;;2.03;;
6823;SDS011;58633;49.470;11.004;2023-03-11T08:55:04;2.93;;;1.80;;
6823;SDS011;58633;49.470;11.004;2023-03-11T08:57:32;2.53;;;1.67;;
6823;SDS011;58633;49.470;11.004;2023-03-11T08:59:58;2.63;;;2.07;;
6823;SDS011;58633;49.470;11.004;2023-03-11T09:02:25;1.80;;;1.70;;
6823;SDS011;58633;49.470;11.004;2023-03-11T09:04:51;1.70;;;1.60;;
6823;SDS011;58633;49.470;11.004;2023-03-11T09:07:17;1.80;;;1.67;;
6823;SDS011;58633;49.470;11.004;2023-03-11T09:09:42;1.70;;;1.60;;
6823;SDS011;58633;49.470;11.004;2023-03-11T09:12:08;2.00;;;1.80;;
6823;SDS011;58633;49.470;11.004;2023-03-11T09:14:38;1.97;;;1.77;;
6823;SDS011;58633;49.470;11.004;2023-03-11T09:17:04;2.67;;;1.67;;
6823;SDS011;58633;49.470;11.004;2023-03-11T09:19:30;2.33;;;2.00;;
6823;SDS011;58633;49.470;11.004;2023-03-11T09:21:58;6.27;;;1.90;;
6823;SDS011;58633;49.470;11.004;2023-03-11T09:24:24;2.30;;;1.83;;
6823;SDS011;58633;49.470;11.004;2023-03-11T09:26:50;1.70;;;1.60;;
6823;SDS011;58633;49.470;11.004;2023-03-11T09:29:16;2.23;;;1.80;;
6823;SDS011;58633;49.470;11.004;2023-03-11T09:31:42;1.77;;;1.47;;
6823;SDS011;58633;49.470;11.004;2023-03-11T09:34:09;3.53;;;1.70;;
6823;SDS011;58633;49.470;11.004;2023-03-11T09:36:36;3.13;;;1.70;;
6823;SDS011;58633;49.470;11.004;2023-03-11T09:39:02;1.70;;;1.60;;
6823;SDS011;58633;49.470;11.004;2023-03-11T09:49:47;1.40;;;1.30;;
6823;SDS011;58633;49.470;11.004;2023-03-11T09:54:57;1.53;;;1.20;;
6823;SDS011;58633;49.470;11.004;2023-03-11T09:57:26;1.30;;;1.13;;
6823;SDS011;58633;49.470;11.004;2023-03-11T09:59:55;1.40;;;1.30;;
6823;SDS011;58633;49.470;11.004;2023-03-11T10:02:22;1.30;;;1.20;;
6823;SDS011;58633;49.470;11.004;2023-03-11T10:07:27;2.13;;;1.80;;
6823;SDS011;58633;49.470;11.004;2023-03-11T10:09:57;3.17;;;2.27;;
6823;SDS011;58633;49.470;11.004;2023-03-11T10:20:31;2.83;;;2.20;;
6823;SDS011;58633;49.470;11.004;2023-03-11T10:25:40;2.93;;;2.37;;
6823;SDS011;58633;49.470;11.004;2023-03-11T10:28:32;4.20;;;2.70;;
6823;SDS011;58633;49.470;11.004;2023-03-11T10:31:06;5.47;;;3.23;;
6823;SDS011;58633;49.470;11.004;2023-03-11T10:33:43;2.50;;;1.90;;
6823;SDS011;58633;49.470;11.004;2023-03-11T10:36:18;1.50;;;1.40;;
6823;SDS011;58633;49.470;11.004;2023-03-11T10:38:48;1.50;;;1.40;;
6823;SDS011;58633;49.470;11.004;2023-03-11T10:41:17;1.77;;;1.67;;
6823;SDS011;58633;49.470;11.004;2023-03-11T10:44:05;4.00;;;2.47;;
6823;SDS011;58633;49.470;11.004;2023-03-11T10:46:37;3.33;;;2.03;;
6823;SDS011;58633;49.470;11.004;2023-03-11T10:49:04;12.97;;;7.03;;
6823;SDS011;58633;49.470;11.004;2023-03-11T10:51:37;7.00;;;3.80;;
6823;SDS011;58633;49.470;11.004;2023-03-11T10:54:03;2.93;;;2.10;;
6823;SDS011;58633;49.470;11.004;2023-03-11T10:56:33;2.57;;;2.10;;
6823;SDS011;58633;49.470;11.004;2023-03-11T10:59:01;1.70;;;1.60;;
6823;SDS011;58633;49.470;11.004;2023-03-11T11:01:28;2.00;;;1.90;;
6823;SDS011;58633;49.470;11.004;2023-03-11T11:03:56;1.73;;;1.60;;
6823;SDS011;58633;49.470;11.004;2023-03-11T11:06:28;1.70;;;1.60;;
6823;SDS011;58633;49.470;11.004;2023-03-11T11:11:41;1.40;;;1.20;;
6823;SDS011;58633;49.470;11.004;2023-03-11T11:14:23;1.80;;;1.50;;
6823;SDS011;58633;49.470;11.004;2023-03-11T11:16:49;2.37;;;1.60;;
6823;SDS011;58633;49.470;11.004;2023-03-11T11:19:15;1.37;;;1.23;;
6823;SDS011;58633;49.470;11.004;2023-03-11T11:21:43;3.97;;;1.97;;
6823;SDS011;58633;49.470;11.004;2023-03-11T11:29:41;2.70;;;1.20;;
6823;SDS011;58633;49.470;11.004;2023-03-11T11:35:00;1.43;;;1.33;;
6823;SDS011;58633;49.470;11.004;2023-03-11T11:37:29;1.73;;;1.53;;
6823;SDS011;58633;49.470;11.004;2023-03-11T11:42:35;2.03;;;1.50;;
6823;SDS011;58633;49.470;11.004;2023-03-11T11:45:09;2.40;;;1.57;;
6823;SDS011;58633;49.470;11.004;2023-03-11T11:47:54;1.50;;;1.40;;
6823;SDS011;58633;49.470;11.004;2023-03-11T11:53:14;1.70;;;1.37;;
6823;SDS011;58633;49.470;11.004;2023-03-11T11:56:03;1.70;;;1.23;;
6823;SDS011;58633;49.470;11.004;2023-03-11T11:58:29;2.03;;;1.50;;
6823;SDS011;58633;49.470;11.004;2023-03-11T12:01:02;1.80;;;1.60;;
6823;SDS011;58633;49.470;11.004;2023-03-11T12:03:48;2.87;;;1.30;;
6823;SDS011;58633;49.470;11.004;2023-03-11T12:12:11;2.00;;;1.77;;
6823;SDS011;58633;49.470;11.004;2023-03-11T12:14:54;2.30;;;1.43;;
6823;SDS011;58633;49.470;11.004;2023-03-11T12:17:24;2.57;;;1.90;;
6823;SDS011;58633;49.470;11.004;2023-03-11T12:19:54;2.80;;;1.80;;
6823;SDS011;58633;49.470;11.004;2023-03-11T12:27:32;3.17;;;2.20;;
6823;SDS011;58633;49.470;11.004;2023-03-11T12:30:15;2.93;;;1.63;;
6823;SDS011;58633;49.470;11.004;2023-03-11T12:32:51;3.67;;;2.00;;
6823;SDS011;58633;49.470;11.004;2023-03-11T12:35:31;2.77;;;1.60;;
6823;SDS011;58633;49.470;11.004;2023-03-11T12:46:11;2.63;;;1.77;;
6823;SDS011;58633;49.470;11.004;2023-03-11T12:51:37;2.20;;;1.90;;
6823;SDS011;58633;49.470;11.004;2023-03-11T12:54:46;1.53;;;1.43;;
6823;SDS011;58633;49.470;11.004;2023-03-11T13:07:53;1.90;;;1.80;;
6823;SDS011;58633;49.470;11.004;2023-03-11T13:10:35;2.43;;;1.90;;
6823;SDS011;58633;49.470;11.004;2023-03-11T13:13:28;3.27;;;2.20;;
6823;SDS011;58633;49.470;11.004;2023-03-11T13:15:54;6.63;;;3.27;;
6823;SDS011;58633;49.470;11.004;2023-03-11T13:18:24;3.70;;;2.40;;
6823;SDS011;58633;49.470;11.004;2023-03-11T13:21:00;3.47;;;2.63;;
6823;SDS011;58633;49.470;11.004;2023-03-11T13:23:28;3.27;;;2.47;;
6823;SDS011;58633;49.470;11.004;2023-03-11T13:39:35;2.80;;;2.03;;
6823;SDS011;58633;49.470;11.004;2023-03-11T13:42:02;4.83;;;3.17;;
6823;SDS011;58633;49.470;11.004;2023-03-11T13:44:34;3.90;;;3.17;;
6823;SDS011;58633;49.470;11.004;2023-03-11T13:47:03;3.50;;;2.70;;
6823;SDS011;58633;49.470;11.004;2023-03-11T13:52:29;2.27;;;1.97;;
6823;SDS011;58633;49.470;11.004;2023-03-11T13:55:05;2.37;;;1.90;;
6823;SDS011;58633;49.470;11.004;2023-03-11T13:57:48;3.07;;;2.40;;
6823;SDS011;58633;49.470;11.004;2023-03-11T14:00:19;4.57;;;2.80;;
6823;SDS011;58633;49.470;11.004;2023-03-11T14:02:58;3.40;;;2.80;;
6823;SDS011;58633;49.470;11.004;2023-03-11T14:05:34;3.00;;;2.27;;
6823;SDS011;58633;49.470;11.004;2023-03-11T14:08:10;4.80;;;3.03;;
6823;SDS011;58633;49.470;11.004;2023-03-11T14:10:54;3.37;;;3.07;;
6823;SDS011;58633;49.470;11.004;2023-03-11T14:13:22;3.10;;;2.47;;
6823;SDS011;58633;49.470;11.004;2023-03-11T14:21:42;3.83;;;2.30;;
6823;SDS011;58633;49.470;11.004;2023-03-11T14:24:25;10.17;;;2.60;;
6823;SDS011;58633;49.470;11.004;2023-03-11T14:26:53;4.63;;;2.20;;
6823;SDS011;58633;49.470;11.004;2023-03-11T14:29:31;2.50;;;2.30;;
6823;SDS011;58633;49.470;11.004;2023-03-11T14:34:53;3.00;;;2.40;;
6823;SDS011;58633;49.470;11.004;2023-03-11T14:37:24;2.77;;;2.10;;
6823;SDS011;58633;49.470;11.004;2023-03-11T14:39:57;3.63;;;2.10;;
6823;SDS011;58633;49.470;11.004;2023-03-11T14:42:24;4.33;;;1.90;;
6823;SDS011;58633;49.470;11.004;2023-03-11T14:45:03;2.70;;;2.00;;
6823;SDS011;58633;49.470;11.004;2023-03-11T14:47:43;2.60;;;2.17;;
6823;SDS011;58633;49.470;11.004;2023-03-11T14:50:21;2.03;;;1.93;;
6823;SDS011;58633;49.470;11.004;2023-03-11T14:52:50;4.60;;;3.17;;
6823;SDS011;58633;49.470;11.004;2023-03-11T14:55:28;8.13;;;5.93;;
6823;SDS011;58633;49.470;11.004;2023-03-11T15:00:55;3.70;;;2.40;;
6823;SDS011;58633;49.470;11.004;2023-03-11T15:03:29;4.00;;;3.07;;
6823;SDS011;58633;49.470;11.004;2023-03-11T15:06:16;5.50;;;3.90;;
6823;SDS011;58633;49.470;11.004;2023-03-11T15:08:57;4.43;;;2.53;;
6823;SDS011;58633;49.470;11.004;2023-03-11T15:11:30;5.77;;;2.60;;
6823;SDS011;58633;49.470;11.004;2023-03-11T15:14:12;2.40;;;2.20;;
6823;SDS011;58633;49.470;11.004;2023-03-11T15:16:43;5.20;;;2.43;;
6823;SDS011;58633;49.470;11.004;2023-03-11T15:21:53;2.60;;;2.00;;
6823;SDS011;58633;49.470;11.004;2023-03-11T15:24:25;2.90;;;1.90;;
6823;SDS011;58633;49.470;11.004;2023-03-11T15:29:19;1.97;;;1.80;;
6823;SDS011;58633;49.470;11.004;2023-03-11T15:31:45;1.90;;;1.80;;
6823;SDS011;58633;49.470;11.004;2023-03-11T15:41:41;3.60;;;2.53;;
6823;SDS011;58633;49.470;11.004;2023-03-11T15:44:24;2.00;;;1.90;;
6823;SDS011;58633;49.470;11.004;2023-03-11T15:46:49;3.73;;;2.40;;
6823;SDS011;58633;49.470;11.004;2023-03-11T15:49:16;4.87;;;2.50;;
6823;SDS011;58633;49.470;11.004;2023-03-11T15:51:41;5.53;;;2.30;;
6823;SDS011;58633;49.470;11.004;2023-03-11T15:54:07;1.90;;;1.80;;
6823;SDS011;58633;49.470;11.004;2023-03-11T15:56:33;4.13;;;1.90;;
6823;SDS011;58633;49.470;11.004;2023-03-11T15:58:59;2.87;;;2.17;;
6823;SDS011;58633;49.470;11.004;2023-03-11T16:01:25;2.23;;;1.73;;
6823;SDS011;58633;49.470;11.004;2023-03-11T16:03:53;3.30;;;2.07;;
6823;SDS011;58633;49.470;11.004;2023-03-11T16:06:19;1.80;;;1.70;;
6823;SDS011;58633;49.470;11.004;2023-03-11T16:08:46;2.77;;;1.80;;
6823;SDS011;58633;49.470;11.004;2023-03-11T16:11:12;1.93;;;1.70;;
6823;SDS011;58633;49.470;11.004;2023-03-11T16:13:38;3.40;;;1.90;;
6823;SDS011;58633;49.470;11.004;2023-03-11T16:16:05;2.50;;;2.03;;
6823;SDS011;58633;49.470;11.004;2023-03-11T16:18:36;3.77;;;2.10;;
6823;SDS011;58633;49.470;11.004;2023-03-11T16:21:01;3.97;;;2.47;;
6823;SDS011;58633;49.470;11.004;2023-03-11T16:23:33;3.67;;;2.40;;
6823;SDS011;58633;49.470;11.004;2023-03-11T16:26:01;2.20;;;2.00;;
6823;SDS011;58633;49.470;11.004;2023-03-11T16:28:28;3.70;;;2.03;;
6823;SDS011;58633;49.470;11.004;2023-03-11T16:30:54;2.20;;;2.00;;
6823;SDS011;58633;49.470;11.004;2023-03-11T16:33:20;2.43;;;1.70;;
6823;SDS011;58633;49.470;11.004;2023-03-11T16:35:46;2.30;;;2.00;;
6823;SDS011;58633;49.470;11.004;2023-03-11T16:38:12;2.50;;;1.87;;
6823;SDS011;58633;49.470;11.004;2023-03-11T16:40:38;1.90;;;1.80;;
6823;SDS011;58633;49.470;11.004;2023-03-11T16:43:11;3.90;;;1.80;;
6823;SDS011;58633;49.470;11.004;2023-03-11T16:45:37;2.63;;;1.70;;
6823;SDS011;58633;49.470;11.004;2023-03-11T16:48:04;4.30;;;1.93;;
6823;SDS011;58633;49.470;11.004;2023-03-11T16:50:30;3.70;;;2.10;;
6823;SDS011;58633;49.470;11.004;2023-03-11T16:52:56;2.13;;;1.90;;
6823;SDS011;58633;49.470;11.004;2023-03-11T16:55:23;3.87;;;1.83;;